sensor_id;sensor_type;location;lat;lon;timestamp;temperature;humidity
5246;DHT22;54412;51.206;6.888;2022-11-15T00:00:50;11.30;99.90
5246;DHT22;54412;51.206;6.888;2022-11-15T00:03:19;11.30;99.90
5246;DHT22;54412;51.206;6.888;2022-11-15T00:05:46;11.40;99.90
5246;DHT22;54412;51.206;6.888;2022-11-15T00:08:12;11.40;99.90
5246;DHT22;54412;51.206;6.888;2022-11-15T00:10:39;11.30;99.90
5246;DHT22;54412;51.206;6.888;2022-11-15T00:13:09;11.40;99.90
5246;DHT22;54412;51.206;6.888;2022-11-15T00:15:37;11.40;99.90
5246;DHT22;54412;51.206;6.888;2022-11-15T00:18:05;11.50;99.90
5246;DHT22;54412;51.206;6.888;2022-11-15T00:20:33;11.50;99.90
5246;DHT22;54412;51.206;6.888;2022-11-15T00:22:59;11.50;99.90
5246;DHT22;54412;51.206;6.888;2022-11-15T00:25:25;11.50;99.90
5246;DHT22;54412;51.206;6.888;2022-11-15T00:27:54;11.60;99.90
5246;DHT22;54412;51.206;6.888;2022-11-15T00:30:21;11.60;99.90
5246;DHT22;54412;51.206;6.888;2022-11-15T00:32:46;11.60;99.90
5246;DHT22;54412;51.206;6.888;2022-11-15T00:35:12;11.60;99.90
5246;DHT22;54412;51.206;6.888;2022-11-15T00:37:37;11.60;99.90
5246;DHT22;54412;51.206;6.888;2022-11-15T00:40:03;11.70;99.90
5246;DHT22;54412;51.206;6.888;2022-11-15T00:42:29;11.70;99.90
5246;DHT22;54412;51.206;6.888;2022-11-15T00:44:55;11.70;99.90
5246;DHT22;54412;51.206;6.888;2022-11-15T00:47:21;11.70;99.90
5246;DHT22;54412;51.206;6.888;2022-11-15T00:49:46;11.80;99.90
5246;DHT22;54412;51.206;6.888;2022-11-15T00:52:12;11.80;99.90
5246;DHT22;54412;51.206;6.888;2022-11-15T00:54:37;11.80;99.90
5246;DHT22;54412;51.206;6.888;2022-11-15T00:57:03;11.80;99.90
5246;DHT22;54412;51.206;6.888;2022-11-15T00:59:29;11.90;99.90
5246;DHT22;54412;51.206;6.888;2022-11-15T01:01:54;11.90;99.90
5246;DHT22;54412;51.206;6.888;2022-11-15T01:04:20;11.90;99.90
5246;DHT22;54412;51.206;6.888;2022-11-15T01:06:46;11.90;99.90
5246;DHT22;54412;51.206;6.888;2022-11-15T01:09:12;12.00;99.90
5246;DHT22;54412;51.206;6.888;2022-11-15T01:11:39;12.00;99.90
5246;DHT22;54412;51.206;6.888;2022-11-15T01:14:05;12.00;99.90
5246;DHT22;54412;51.206;6.888;2022-11-15T01:16:30;12.00;99.90
5246;DHT22;54412;51.206;6.888;2022-11-15T01:18:58;12.00;99.90
5246;DHT22;54412;51.206;6.888;2022-11-15T01:21:24;12.00;99.90
5246;DHT22;54412;51.206;6.888;2022-11-15T01:23:53;12.00;99.90
5246;DHT22;54412;51.206;6.888;2022-11-15T01:26:20;12.00;99.90
5246;DHT22;54412;51.206;6.888;2022-11-15T01:28:47;12.00;99.90
5246;DHT22;54412;51.206;6.888;2022-11-15T01:31:15;12.10;99.90
5246;DHT22;54412;51.206;6.888;2022-11-15T01:33:43;12.10;99.90
5246;DHT22;54412;51.206;6.888;2022-11-15T01:36:14;12.10;99.90
5246;DHT22;54412;51.206;6.888;2022-11-15T01:38:47;12.10;99.90
5246;DHT22;54412;51.206;6.888;2022-11-15T01:41:20;12.10;99.90
5246;DHT22;54412;51.206;6.888;2022-11-15T01:43:56;12.10;99.90
5246;DHT22;54412;51.206;6.888;2022-11-15T01:46:46;12.10;99.90
5246;DHT22;54412;51.206;6.888;2022-11-15T01:49:17;12.10;99.90
5246;DHT22;54412;51.206;6.888;2022-11-15T01:51:45;12.10;99.90
5246;DHT22;54412;51.206;6.888;2022-11-15T01:54:15;12.10;99.90
5246;DHT22;54412;51.206;6.888;2022-11-15T01:56:53;12.10;99.90
5246;DHT22;54412;51.206;6.888;2022-11-15T01:59:25;12.10;99.90
5246;DHT22;54412;51.206;6.888;2022-11-15T02:01:51;12.20;99.90
5246;DHT22;54412;51.206;6.888;2022-11-15T02:04:27;12.20;99.90
5246;DHT22;54412;51.206;6.888;2022-11-15T02:06:56;12.20;99.90
5246;DHT22;54412;51.206;6.888;2022-11-15T02:09:21;12.20;99.90
5246;DHT22;54412;51.206;6.888;2022-11-15T02:11:48;12.20;99.90
5246;DHT22;54412;51.206;6.888;2022-11-15T02:14:18;12.20;99.90
5246;DHT22;54412;51.206;6.888;2022-11-15T02:25:38;12.30;99.90
5246;DHT22;54412;51.206;6.888;2022-11-15T02:28:38;12.30;99.90
5246;DHT22;54412;51.206;6.888;2022-11-15T02:31:41;12.30;99.90
5246;DHT22;54412;51.206;6.888;2022-11-15T02:37:47;12.30;99.90
5246;DHT22;54412;51.206;6.888;2022-11-15T02:43:40;12.40;99.90
5246;DHT22;54412;51.206;6.888;2022-11-15T02:49:14;12.40;99.90
5246;DHT22;54412;51.206;6.888;2022-11-15T02:51:43;12.40;99.90
5246;DHT22;54412;51.206;6.888;2022-11-15T02:54:15;12.40;99.90
5246;DHT22;54412;51.206;6.888;2022-11-15T02:56:46;12.40;99.90
5246;DHT22;54412;51.206;6.888;2022-11-15T02:59:35;12.40;99.90
5246;DHT22;54412;51.206;6.888;2022-11-15T03:02:27;12.50;99.90
5246;DHT22;54412;51.206;6.888;2022-11-15T03:05:34;12.50;99.90
5246;DHT22;54412;51.206;6.888;2022-11-15T03:08:16;12.50;99.90
5246;DHT22;54412;51.206;6.888;2022-11-15T03:13:39;12.50;99.90
5246;DHT22;54412;51.206;6.888;2022-11-15T03:21:48;12.50;99.90
5246;DHT22;54412;51.206;6.888;2022-11-15T03:24:18;12.50;99.90
5246;DHT22;54412;51.206;6.888;2022-11-15T03:26:47;12.50;99.90
5246;DHT22;54412;51.206;6.888;2022-11-15T03:29:19;12.50;99.90
5246;DHT22;54412;51.206;6.888;2022-11-15T03:31:56;12.50;99.90
5246;DHT22;54412;51.206;6.888;2022-11-15T03:35:27;12.50;99.90
5246;DHT22;54412;51.206;6.888;2022-11-15T03:38:03;12.50;99.90
5246;DHT22;54412;51.206;6.888;2022-11-15T03:40:44;12.50;99.90
5246;DHT22;54412;51.206;6.888;2022-11-15T03:46:18;12.50;99.90
5246;DHT22;54412;51.206;6.888;2022-11-15T03:48:53;12.50;99.90
5246;DHT22;54412;51.206;6.888;2022-11-15T03:51:24;12.50;99.90
5246;DHT22;54412;51.206;6.888;2022-11-15T03:53:50;12.50;99.90
5246;DHT22;54412;51.206;6.888;2022-11-15T03:56:16;12.50;99.90
5246;DHT22;54412;51.206;6.888;2022-11-15T03:58:42;12.50;99.90
5246;DHT22;54412;51.206;6.888;2022-11-15T04:01:08;12.50;99.90
5246;DHT22;54412;51.206;6.888;2022-11-15T04:03:33;12.50;99.90
5246;DHT22;54412;51.206;6.888;2022-11-15T04:05:59;12.50;99.90
5246;DHT22;54412;51.206;6.888;2022-11-15T04:08:25;12.50;99.90
5246;DHT22;54412;51.206;6.888;2022-11-15T04:10:51;12.60;99.90
5246;DHT22;54412;51.206;6.888;2022-11-15T04:13:17;12.60;99.90
5246;DHT22;54412;51.206;6.888;2022-11-15T04:15:43;12.60;99.90
5246;DHT22;54412;51.206;6.888;2022-11-15T04:18:08;12.60;99.90
5246;DHT22;54412;51.206;6.888;2022-11-15T04:20:34;12.60;99.90
5246;DHT22;54412;51.206;6.888;2022-11-15T04:23:20;12.60;99.90
5246;DHT22;54412;51.206;6.888;2022-11-15T04:26:09;12.60;99.90
5246;DHT22;54412;51.206;6.888;2022-11-15T04:28:38;12.50;99.90
5246;DHT22;54412;51.206;6.888;2022-11-15T04:31:22;12.50;99.90
5246;DHT22;54412;51.206;6.888;2022-11-15T04:33:48;12.50;99.90
5246;DHT22;54412;51.206;6.888;2022-11-15T04:36:14;12.50;99.90
5246;DHT22;54412;51.206;6.888;2022-11-15T04:38:58;12.50;99.90
5246;DHT22;54412;51.206;6.888;2022-11-15T04:41:24;12.50;99.90
5246;DHT22;54412;51.206;6.888;2022-11-15T04:43:49;12.40;99.90
5246;DHT22;54412;51.206;6.888;2022-11-15T04:46:15;12.40;99.90
5246;DHT22;54412;51.206;6.888;2022-11-15T04:48:41;12.30;99.90
5246;DHT22;54412;51.206;6.888;2022-11-15T04:51:06;12.30;99.90
5246;DHT22;54412;51.206;6.888;2022-11-15T04:53:32;12.30;99.90
5246;DHT22;54412;51.206;6.888;2022-11-15T04:55:58;12.20;99.90
5246;DHT22;54412;51.206;6.888;2022-11-15T04:58:23;12.20;99.90
5246;DHT22;54412;51.206;6.888;2022-11-15T05:00:49;12.20;99.90
5246;DHT22;54412;51.206;6.888;2022-11-15T05:03:15;12.20;99.90
5246;DHT22;54412;51.206;6.888;2022-11-15T05:05:59;12.30;99.90
5246;DHT22;54412;51.206;6.888;2022-11-15T05:08:25;12.30;99.90
5246;DHT22;54412;51.206;6.888;2022-11-15T05:10:51;12.30;99.90
5246;DHT22;54412;51.206;6.888;2022-11-15T05:13:17;12.40;99.90
5246;DHT22;54412;51.206;6.888;2022-11-15T05:15:43;12.30;99.90
5246;DHT22;54412;51.206;6.888;2022-11-15T05:18:08;12.40;99.90
5246;DHT22;54412;51.206;6.888;2022-11-15T05:20:35;12.40;99.90
5246;DHT22;54412;51.206;6.888;2022-11-15T05:23:00;12.40;99.90
5246;DHT22;54412;51.206;6.888;2022-11-15T05:25:26;12.40;99.90
5246;DHT22;54412;51.206;6.888;2022-11-15T05:27:52;12.40;99.90
5246;DHT22;54412;51.206;6.888;2022-11-15T05:30:18;12.40;99.90
5246;DHT22;54412;51.206;6.888;2022-11-15T05:32:44;12.50;99.90
5246;DHT22;54412;51.206;6.888;2022-11-15T05:35:18;12.50;99.90
5246;DHT22;54412;51.206;6.888;2022-11-15T05:37:52;12.50;99.90
5246;DHT22;54412;51.206;6.888;2022-11-15T05:40:18;12.50;99.90
5246;DHT22;54412;51.206;6.888;2022-11-15T05:42:44;12.50;99.90
5246;DHT22;54412;51.206;6.888;2022-11-15T05:45:11;12.50;99.90
5246;DHT22;54412;51.206;6.888;2022-11-15T05:47:38;12.60;99.90
5246;DHT22;54412;51.206;6.888;2022-11-15T05:50:05;12.60;99.90
5246;DHT22;54412;51.206;6.888;2022-11-15T05:52:34;12.50;99.90
5246;DHT22;54412;51.206;6.888;2022-11-15T05:55:03;12.60;99.90
5246;DHT22;54412;51.206;6.888;2022-11-15T05:57:31;12.60;99.90
5246;DHT22;54412;51.206;6.888;2022-11-15T05:59:57;12.60;99.90
5246;DHT22;54412;51.206;6.888;2022-11-15T06:02:23;12.60;99.90
5246;DHT22;54412;51.206;6.888;2022-11-15T06:04:48;12.60;99.90
5246;DHT22;54412;51.206;6.888;2022-11-15T06:07:14;12.60;99.90
5246;DHT22;54412;51.206;6.888;2022-11-15T06:09:40;12.70;99.90
5246;DHT22;54412;51.206;6.888;2022-11-15T06:12:06;12.70;99.90
5246;DHT22;54412;51.206;6.888;2022-11-15T06:14:31;12.70;99.90
5246;DHT22;54412;51.206;6.888;2022-11-15T06:16:57;12.70;99.90
5246;DHT22;54412;51.206;6.888;2022-11-15T06:19:23;12.70;99.90
5246;DHT22;54412;51.206;6.888;2022-11-15T06:21:48;12.70;99.90
5246;DHT22;54412;51.206;6.888;2022-11-15T06:24:14;12.70;99.90
5246;DHT22;54412;51.206;6.888;2022-11-15T06:26:40;12.70;99.90
5246;DHT22;54412;51.206;6.888;2022-11-15T06:29:05;12.80;99.90
5246;DHT22;54412;51.206;6.888;2022-11-15T06:31:31;12.80;99.90
5246;DHT22;54412;51.206;6.888;2022-11-15T06:33:58;12.90;99.90
5246;DHT22;54412;51.206;6.888;2022-11-15T06:36:24;12.90;99.90
5246;DHT22;54412;51.206;6.888;2022-11-15T06:38:49;12.80;99.90
5246;DHT22;54412;51.206;6.888;2022-11-15T06:41:15;12.90;99.90
5246;DHT22;54412;51.206;6.888;2022-11-15T06:43:42;12.80;99.90
5246;DHT22;54412;51.206;6.888;2022-11-15T06:46:08;12.80;99.90
5246;DHT22;54412;51.206;6.888;2022-11-15T06:48:34;12.70;99.90
5246;DHT22;54412;51.206;6.888;2022-11-15T06:51:01;12.70;99.90
5246;DHT22;54412;51.206;6.888;2022-11-15T06:53:29;12.70;99.90
5246;DHT22;54412;51.206;6.888;2022-11-15T06:56:04;12.60;99.90
5246;DHT22;54412;51.206;6.888;2022-11-15T06:58:31;12.70;99.90
5246;DHT22;54412;51.206;6.888;2022-11-15T07:01:01;12.70;99.90
5246;DHT22;54412;51.206;6.888;2022-11-15T07:03:33;12.60;99.90
5246;DHT22;54412;51.206;6.888;2022-11-15T07:06:00;12.60;99.90
5246;DHT22;54412;51.206;6.888;2022-11-15T07:08:28;12.60;99.90
5246;DHT22;54412;51.206;6.888;2022-11-15T07:10:57;12.60;99.90
5246;DHT22;54412;51.206;6.888;2022-11-15T07:13:26;12.60;99.90
5246;DHT22;54412;51.206;6.888;2022-11-15T07:15:52;12.50;99.90
5246;DHT22;54412;51.206;6.888;2022-11-15T07:18:18;12.50;99.90
5246;DHT22;54412;51.206;6.888;2022-11-15T07:20:44;12.50;99.90
5246;DHT22;54412;51.206;6.888;2022-11-15T07:23:10;12.50;99.90
5246;DHT22;54412;51.206;6.888;2022-11-15T07:25:35;12.60;99.90
5246;DHT22;54412;51.206;6.888;2022-11-15T07:28:01;12.60;99.90
5246;DHT22;54412;51.206;6.888;2022-11-15T07:30:28;12.50;99.90
5246;DHT22;54412;51.206;6.888;2022-11-15T07:32:58;12.50;99.90
5246;DHT22;54412;51.206;6.888;2022-11-15T07:35:27;12.50;99.90
5246;DHT22;54412;51.206;6.888;2022-11-15T07:37:58;12.50;99.90
5246;DHT22;54412;51.206;6.888;2022-11-15T07:40:31;12.50;99.90
5246;DHT22;54412;51.206;6.888;2022-11-15T07:43:02;12.40;99.90
5246;DHT22;54412;51.206;6.888;2022-11-15T07:45:29;12.40;99.90
5246;DHT22;54412;51.206;6.888;2022-11-15T07:47:55;12.40;99.90
5246;DHT22;54412;51.206;6.888;2022-11-15T07:50:22;12.50;99.90
5246;DHT22;54412;51.206;6.888;2022-11-15T07:52:57;12.50;99.90
5246;DHT22;54412;51.206;6.888;2022-11-15T07:55:25;12.50;99.90
5246;DHT22;54412;51.206;6.888;2022-11-15T07:57:59;12.50;99.90
5246;DHT22;54412;51.206;6.888;2022-11-15T08:00:26;12.50;99.90
5246;DHT22;54412;51.206;6.888;2022-11-15T08:02:51;12.60;99.90
5246;DHT22;54412;51.206;6.888;2022-11-15T08:05:17;12.60;99.90
5246;DHT22;54412;51.206;6.888;2022-11-15T08:07:42;12.60;99.90
5246;DHT22;54412;51.206;6.888;2022-11-15T08:10:08;12.70;99.90
5246;DHT22;54412;51.206;6.888;2022-11-15T08:12:34;12.70;99.90
5246;DHT22;54412;51.206;6.888;2022-11-15T08:15:00;12.70;99.90
5246;DHT22;54412;51.206;6.888;2022-11-15T08:17:25;12.70;99.90
5246;DHT22;54412;51.206;6.888;2022-11-15T08:19:51;12.70;99.90
5246;DHT22;54412;51.206;6.888;2022-11-15T08:22:17;12.60;99.90
5246;DHT22;54412;51.206;6.888;2022-11-15T08:24:44;12.60;99.90
5246;DHT22;54412;51.206;6.888;2022-11-15T08:27:10;12.60;99.90
5246;DHT22;54412;51.206;6.888;2022-11-15T08:29:44;12.60;99.90
5246;DHT22;54412;51.206;6.888;2022-11-15T08:32:10;12.60;99.90
5246;DHT22;54412;51.206;6.888;2022-11-15T08:34:37;12.60;99.90
5246;DHT22;54412;51.206;6.888;2022-11-15T08:37:04;12.70;99.90
5246;DHT22;54412;51.206;6.888;2022-11-15T08:39:30;12.70;99.90
5246;DHT22;54412;51.206;6.888;2022-11-15T08:41:56;12.70;99.90
5246;DHT22;54412;51.206;6.888;2022-11-15T08:44:22;12.80;99.90
5246;DHT22;54412;51.206;6.888;2022-11-15T08:46:49;12.90;99.90
5246;DHT22;54412;51.206;6.888;2022-11-15T08:49:16;13.00;99.90
5246;DHT22;54412;51.206;6.888;2022-11-15T08:51:41;13.00;99.90
5246;DHT22;54412;51.206;6.888;2022-11-15T08:54:07;13.00;99.90
5246;DHT22;54412;51.206;6.888;2022-11-15T08:56:33;13.00;99.90
5246;DHT22;54412;51.206;6.888;2022-11-15T08:58:59;13.10;99.90
5246;DHT22;54412;51.206;6.888;2022-11-15T09:01:24;13.20;99.90
5246;DHT22;54412;51.206;6.888;2022-11-15T09:03:50;13.20;99.90
5246;DHT22;54412;51.206;6.888;2022-11-15T09:06:16;13.20;99.90
5246;DHT22;54412;51.206;6.888;2022-11-15T09:08:42;13.20;99.90
5246;DHT22;54412;51.206;6.888;2022-11-15T09:11:09;13.20;99.90
5246;DHT22;54412;51.206;6.888;2022-11-15T09:13:36;13.30;99.90
5246;DHT22;54412;51.206;6.888;2022-11-15T09:16:03;13.40;99.90
5246;DHT22;54412;51.206;6.888;2022-11-15T09:18:30;13.40;99.90
5246;DHT22;54412;51.206;6.888;2022-11-15T09:20:57;13.50;99.90
5246;DHT22;54412;51.206;6.888;2022-11-15T09:23:24;13.70;99.90
5246;DHT22;54412;51.206;6.888;2022-11-15T09:25:51;13.90;99.90
5246;DHT22;54412;51.206;6.888;2022-11-15T09:28:17;13.70;99.90
5246;DHT22;54412;51.206;6.888;2022-11-15T09:30:43;13.70;99.90
5246;DHT22;54412;51.206;6.888;2022-11-15T09:33:11;13.80;99.90
5246;DHT22;54412;51.206;6.888;2022-11-15T09:35:38;13.90;99.90
5246;DHT22;54412;51.206;6.888;2022-11-15T09:38:03;13.90;99.90
5246;DHT22;54412;51.206;6.888;2022-11-15T09:40:31;14.00;99.90
5246;DHT22;54412;51.206;6.888;2022-11-15T09:43:10;14.00;99.90
5246;DHT22;54412;51.206;6.888;2022-11-15T09:45:52;14.00;99.90
5246;DHT22;54412;51.206;6.888;2022-11-15T09:54:05;14.10;99.90
5246;DHT22;54412;51.206;6.888;2022-11-15T09:56:40;14.30;99.90
5246;DHT22;54412;51.206;6.888;2022-11-15T10:04:45;14.40;99.90
5246;DHT22;54412;51.206;6.888;2022-11-15T10:07:19;14.30;99.90
5246;DHT22;54412;51.206;6.888;2022-11-15T10:10:14;14.30;99.90
5246;DHT22;54412;51.206;6.888;2022-11-15T10:12:50;14.50;99.90
5246;DHT22;54412;51.206;6.888;2022-11-15T10:15:19;14.80;99.90
5246;DHT22;54412;51.206;6.888;2022-11-15T10:23:21;14.50;99.90
5246;DHT22;54412;51.206;6.888;2022-11-15T10:25:51;14.70;99.90
5246;DHT22;54412;51.206;6.888;2022-11-15T10:28:28;14.80;99.90
5246;DHT22;54412;51.206;6.888;2022-11-15T10:30:57;14.80;99.90
5246;DHT22;54412;51.206;6.888;2022-11-15T10:33:30;14.80;99.90
5246;DHT22;54412;51.206;6.888;2022-11-15T10:41:22;15.80;99.90
5246;DHT22;54412;51.206;6.888;2022-11-15T10:44:02;16.00;99.90
5246;DHT22;54412;51.206;6.888;2022-11-15T10:46:41;15.70;99.90
5246;DHT22;54412;51.206;6.888;2022-11-15T10:51:47;15.50;99.90
5246;DHT22;54412;51.206;6.888;2022-11-15T10:54:24;15.50;99.90
5246;DHT22;54412;51.206;6.888;2022-11-15T10:57:27;15.60;99.90
5246;DHT22;54412;51.206;6.888;2022-11-15T11:00:03;15.40;99.90
5246;DHT22;54412;51.206;6.888;2022-11-15T11:03:03;15.10;99.90
5246;DHT22;54412;51.206;6.888;2022-11-15T11:05:40;15.50;99.90
5246;DHT22;54412;51.206;6.888;2022-11-15T11:10:38;15.40;99.90
5246;DHT22;54412;51.206;6.888;2022-11-15T11:13:24;15.70;99.90
5246;DHT22;54412;51.206;6.888;2022-11-15T11:19:08;15.90;99.90
5246;DHT22;54412;51.206;6.888;2022-11-15T11:22:14;16.10;99.90
5246;DHT22;54412;51.206;6.888;2022-11-15T11:24:51;16.20;99.90
5246;DHT22;54412;51.206;6.888;2022-11-15T11:30:42;16.20;99.90
5246;DHT22;54412;51.206;6.888;2022-11-15T11:33:22;16.50;99.90
5246;DHT22;54412;51.206;6.888;2022-11-15T11:39:10;16.50;99.90
5246;DHT22;54412;51.206;6.888;2022-11-15T11:41:55;16.70;99.90
5246;DHT22;54412;51.206;6.888;2022-11-15T11:48:09;16.60;99.90
5246;DHT22;54412;51.206;6.888;2022-11-15T11:50:41;16.20;99.90
5246;DHT22;54412;51.206;6.888;2022-11-15T11:53:24;16.10;99.90
5246;DHT22;54412;51.206;6.888;2022-11-15T11:55:58;15.90;99.90
5246;DHT22;54412;51.206;6.888;2022-11-15T11:58:38;15.90;99.90
5246;DHT22;54412;51.206;6.888;2022-11-15T12:01:13;15.70;99.90
5246;DHT22;54412;51.206;6.888;2022-11-15T12:06:18;15.40;99.90
5246;DHT22;54412;51.206;6.888;2022-11-15T12:08:53;15.60;99.90
5246;DHT22;54412;51.206;6.888;2022-11-15T12:11:52;15.70;99.90
5246;DHT22;54412;51.206;6.888;2022-11-15T12:14:51;16.00;99.90
5246;DHT22;54412;51.206;6.888;2022-11-15T12:17:28;16.20;99.90
5246;DHT22;54412;51.206;6.888;2022-11-15T12:20:00;16.40;99.90
5246;DHT22;54412;51.206;6.888;2022-11-15T12:22:39;16.50;99.90
5246;DHT22;54412;51.206;6.888;2022-11-15T12:25:31;16.60;99.90
5246;DHT22;54412;51.206;6.888;2022-11-15T12:28:19;16.40;99.90
5246;DHT22;54412;51.206;6.888;2022-11-15T12:31:03;16.20;99.90
5246;DHT22;54412;51.206;6.888;2022-11-15T12:33:40;16.10;99.90
5246;DHT22;54412;51.206;6.888;2022-11-15T12:36:29;16.00;99.90
5246;DHT22;54412;51.206;6.888;2022-11-15T12:39:10;15.80;99.90
5246;DHT22;54412;51.206;6.888;2022-11-15T12:41:39;15.80;99.90
5246;DHT22;54412;51.206;6.888;2022-11-15T13:12:57;16.80;99.90
5246;DHT22;54412;51.206;6.888;2022-11-15T13:18:39;16.60;99.90
5246;DHT22;54412;51.206;6.888;2022-11-15T13:21:20;16.40;99.90
5246;DHT22;54412;51.206;6.888;2022-11-15T13:24:16;16.30;99.90
5246;DHT22;54412;51.206;6.888;2022-11-15T13:26:42;16.10;99.90
5246;DHT22;54412;51.206;6.888;2022-11-15T13:29:16;16.00;99.90
5246;DHT22;54412;51.206;6.888;2022-11-15T13:31:44;15.90;99.90
5246;DHT22;54412;51.206;6.888;2022-11-15T13:34:31;15.70;99.90
5246;DHT22;54412;51.206;6.888;2022-11-15T13:36:58;15.60;99.90
5246;DHT22;54412;51.206;6.888;2022-11-15T13:39:34;15.60;99.90
5246;DHT22;54412;51.206;6.888;2022-11-15T13:42:02;15.50;99.90
5246;DHT22;54412;51.206;6.888;2022-11-15T13:44:31;15.50;99.90
5246;DHT22;54412;51.206;6.888;2022-11-15T13:47:14;15.80;99.90
5246;DHT22;54412;51.206;6.888;2022-11-15T13:49:41;15.50;99.90
5246;DHT22;54412;51.206;6.888;2022-11-15T13:52:14;15.40;99.90
5246;DHT22;54412;51.206;6.888;2022-11-15T13:57:56;15.50;99.90
5246;DHT22;54412;51.206;6.888;2022-11-15T14:02:56;15.30;99.90
5246;DHT22;54412;51.206;6.888;2022-11-15T14:05:24;15.10;99.90
5246;DHT22;54412;51.206;6.888;2022-11-15T14:08:11;15.20;99.90
5246;DHT22;54412;51.206;6.888;2022-11-15T14:10:48;15.10;99.90
5246;DHT22;54412;51.206;6.888;2022-11-15T14:13:30;15.20;99.90
5246;DHT22;54412;51.206;6.888;2022-11-15T14:16:18;15.10;99.90
5246;DHT22;54412;51.206;6.888;2022-11-15T14:18:52;14.90;99.90
5246;DHT22;54412;51.206;6.888;2022-11-15T14:21:19;14.90;99.90
5246;DHT22;54412;51.206;6.888;2022-11-15T14:23:46;14.80;99.90
5246;DHT22;54412;51.206;6.888;2022-11-15T14:26:33;14.70;99.90
5246;DHT22;54412;51.206;6.888;2022-11-15T14:29:37;14.60;99.90
5246;DHT22;54412;51.206;6.888;2022-11-15T14:32:14;14.60;99.90
5246;DHT22;54412;51.206;6.888;2022-11-15T14:34:42;14.60;99.90
5246;DHT22;54412;51.206;6.888;2022-11-15T14:37:30;14.60;99.90
5246;DHT22;54412;51.206;6.888;2022-11-15T14:39:59;14.50;99.90
5246;DHT22;54412;51.206;6.888;2022-11-15T14:42:25;14.50;99.90
5246;DHT22;54412;51.206;6.888;2022-11-15T14:44:51;14.50;99.90
5246;DHT22;54412;51.206;6.888;2022-11-15T14:47:17;14.50;99.90
5246;DHT22;54412;51.206;6.888;2022-11-15T14:49:44;14.50;99.90
5246;DHT22;54412;51.206;6.888;2022-11-15T14:52:26;14.50;99.90
5246;DHT22;54412;51.206;6.888;2022-11-15T14:54:54;14.50;99.90
5246;DHT22;54412;51.206;6.888;2022-11-15T14:57:21;14.50;99.90
5246;DHT22;54412;51.206;6.888;2022-11-15T14:59:47;14.40;99.90
5246;DHT22;54412;51.206;6.888;2022-11-15T15:02:23;14.40;99.90
5246;DHT22;54412;51.206;6.888;2022-11-15T15:04:51;14.40;99.90
5246;DHT22;54412;51.206;6.888;2022-11-15T15:07:17;14.40;99.90
5246;DHT22;54412;51.206;6.888;2022-11-15T15:09:44;14.40;99.90
5246;DHT22;54412;51.206;6.888;2022-11-15T15:12:21;14.30;99.90
5246;DHT22;54412;51.206;6.888;2022-11-15T15:14:49;14.30;99.90
5246;DHT22;54412;51.206;6.888;2022-11-15T15:17:16;14.30;99.90
5246;DHT22;54412;51.206;6.888;2022-11-15T15:19:42;14.20;99.90
5246;DHT22;54412;51.206;6.888;2022-11-15T15:22:15;14.30;99.90
5246;DHT22;54412;51.206;6.888;2022-11-15T15:24:44;14.20;99.90
5246;DHT22;54412;51.206;6.888;2022-11-15T15:27:11;14.20;99.90
5246;DHT22;54412;51.206;6.888;2022-11-15T15:29:37;14.20;99.90
5246;DHT22;54412;51.206;6.888;2022-11-15T15:32:04;14.20;99.90
5246;DHT22;54412;51.206;6.888;2022-11-15T15:34:30;14.20;99.90
5246;DHT22;54412;51.206;6.888;2022-11-15T15:39:48;14.20;99.90
5246;DHT22;54412;51.206;6.888;2022-11-15T15:42:14;14.20;99.90
5246;DHT22;54412;51.206;6.888;2022-11-15T15:44:40;14.10;99.90
5246;DHT22;54412;51.206;6.888;2022-11-15T15:47:18;14.20;99.90
5246;DHT22;54412;51.206;6.888;2022-11-15T15:49:46;14.10;99.90
5246;DHT22;54412;51.206;6.888;2022-11-15T15:52:12;14.10;99.90
5246;DHT22;54412;51.206;6.888;2022-11-15T15:54:39;14.10;99.90
5246;DHT22;54412;51.206;6.888;2022-11-15T15:57:07;14.10;99.90
5246;DHT22;54412;51.206;6.888;2022-11-15T15:59:34;14.00;99.90
5246;DHT22;54412;51.206;6.888;2022-11-15T16:02:00;14.10;99.90
5246;DHT22;54412;51.206;6.888;2022-11-15T16:04:25;14.10;99.90
5246;DHT22;54412;51.206;6.888;2022-11-15T16:06:51;14.00;99.90
5246;DHT22;54412;51.206;6.888;2022-11-15T16:09:20;14.00;99.90
5246;DHT22;54412;51.206;6.888;2022-11-15T16:12:09;14.00;99.90
5246;DHT22;54412;51.206;6.888;2022-11-15T16:14:34;14.00;99.90
5246;DHT22;54412;51.206;6.888;2022-11-15T16:17:00;14.00;99.90
5246;DHT22;54412;51.206;6.888;2022-11-15T16:19:26;14.00;99.90
5246;DHT22;54412;51.206;6.888;2022-11-15T16:21:52;14.00;99.90
5246;DHT22;54412;51.206;6.888;2022-11-15T16:24:19;14.00;99.90
5246;DHT22;54412;51.206;6.888;2022-11-15T16:26:47;14.00;99.90
5246;DHT22;54412;51.206;6.888;2022-11-15T16:29:15;13.90;99.90
5246;DHT22;54412;51.206;6.888;2022-11-15T16:31:41;14.00;99.90
5246;DHT22;54412;51.206;6.888;2022-11-15T16:34:08;14.00;99.90
5246;DHT22;54412;51.206;6.888;2022-11-15T16:36:34;14.00;99.90
5246;DHT22;54412;51.206;6.888;2022-11-15T16:39:01;14.00;99.90
5246;DHT22;54412;51.206;6.888;2022-11-15T16:41:31;14.00;99.90
5246;DHT22;54412;51.206;6.888;2022-11-15T16:43:56;14.00;99.90
5246;DHT22;54412;51.206;6.888;2022-11-15T16:46:24;14.00;99.90
5246;DHT22;54412;51.206;6.888;2022-11-15T16:48:52;14.00;99.90
5246;DHT22;54412;51.206;6.888;2022-11-15T16:51:18;14.00;99.90
5246;DHT22;54412;51.206;6.888;2022-11-15T16:53:44;14.00;99.90
5246;DHT22;54412;51.206;6.888;2022-11-15T16:56:29;14.00;99.90
5246;DHT22;54412;51.206;6.888;2022-11-15T16:58:57;14.00;99.90
5246;DHT22;54412;51.206;6.888;2022-11-15T17:03:51;14.00;99.90
5246;DHT22;54412;51.206;6.888;2022-11-15T17:06:19;14.00;99.90
5246;DHT22;54412;51.206;6.888;2022-11-15T17:08:46;13.90;99.90
5246;DHT22;54412;51.206;6.888;2022-11-15T17:11:15;13.90;99.90
5246;DHT22;54412;51.206;6.888;2022-11-15T17:13:45;13.90;99.90
5246;DHT22;54412;51.206;6.888;2022-11-15T17:16:15;14.00;99.90
5246;DHT22;54412;51.206;6.888;2022-11-15T17:18:42;13.90;99.90
5246;DHT22;54412;51.206;6.888;2022-11-15T17:21:16;13.90;99.90
5246;DHT22;54412;51.206;6.888;2022-11-15T17:23:43;13.90;99.90
5246;DHT22;54412;51.206;6.888;2022-11-15T17:26:10;14.00;99.90
5246;DHT22;54412;51.206;6.888;2022-11-15T17:28:38;14.00;99.90
5246;DHT22;54412;51.206;6.888;2022-11-15T17:31:10;14.00;99.90
5246;DHT22;54412;51.206;6.888;2022-11-15T17:33:38;14.00;99.90
5246;DHT22;54412;51.206;6.888;2022-11-15T17:36:07;14.00;99.90
5246;DHT22;54412;51.206;6.888;2022-11-15T17:38:35;14.00;99.90
5246;DHT22;54412;51.206;6.888;2022-11-15T17:43:30;14.00;99.90
5246;DHT22;54412;51.206;6.888;2022-11-15T17:45:58;14.00;99.90
5246;DHT22;54412;51.206;6.888;2022-11-15T17:48:25;14.00;99.90
5246;DHT22;54412;51.206;6.888;2022-11-15T17:50:58;14.00;99.90
5246;DHT22;54412;51.206;6.888;2022-11-15T17:53:26;14.10;99.90
5246;DHT22;54412;51.206;6.888;2022-11-15T17:56:03;14.10;99.90
5246;DHT22;54412;51.206;6.888;2022-11-15T17:58:31;14.10;99.90
5246;DHT22;54412;51.206;6.888;2022-11-15T18:01:21;14.00;99.90
5246;DHT22;54412;51.206;6.888;2022-11-15T18:03:48;14.00;99.90
5246;DHT22;54412;51.206;6.888;2022-11-15T18:06:16;13.90;99.90